Time;durP1;ratioP1;P1;durP2;ratioP2;P2;SDS_P1;SDS_P2;PMS_P1;PMS_P2;Temp;Humidity;BMP_temperature;BMP_pressure;BME280_temperature;BME280_humidity;BME280_pressure;Samples;Min_cycle;Max_cycle;Signal;HPM_P1;HPM_P2
2022/03/19 00:01:37;;;;;;;205.27;84.40;;;;;;;-2.33;65.11;102772.87;1442587;89;21568;-81
2022/03/19 00:04:04;;;;;;;235.88;90.57;;;;;;;-2.45;65.74;102772.91;1443368;89;21472;-81
2022/03/19 00:06:36;;;;;;;250.05;93.25;;;;;;;-2.63;65.52;102766.08;1444099;89;21435;-81
2022/03/19 00:09:04;;;;;;;240.32;93.37;;;;;;;-2.66;65.54;102763.94;1443531;90;21457;-80
2022/03/19 00:11:31;;;;;;;270.70;112.03;;;;;;;-2.69;66.08;102773.88;1444895;89;21560;-81
2022/03/19 00:13:58;;;;;;;251.02;107.20;;;;;;;-2.68;67.00;102774.30;1422810;90;21405;-81
2022/03/19 00:16:25;;;;;;;340.25;146.37;;;;;;;-2.72;66.99;102777.34;1444229;89;22440;-81
2022/03/19 00:18:52;;;;;;;374.02;164.43;;;;;;;-2.74;66.20;102768.70;1442894;90;21480;-81
2022/03/19 00:21:20;;;;;;;264.95;108.83;;;;;;;-2.75;66.47;102765.69;1440363;90;21368;-81
2022/03/19 00:23:47;;;;;;;271.43;101.38;;;;;;;-2.75;66.47;102763.09;1443060;89;21522;-83
2022/03/19 00:26:15;;;;;;;248.13;106.25;;;;;;;-2.70;65.31;102763.50;1440028;89;22366;-82
2022/03/19 00:28:42;;;;;;;236.95;99.85;;;;;;;-2.67;65.34;102758.33;1441986;90;21333;-84
2022/03/19 00:31:09;;;;;;;234.70;96.53;;;;;;;-2.66;65.99;102755.72;1446537;89;22344;-82
2022/03/19 00:33:36;;;;;;;239.42;97.47;;;;;;;-2.65;65.77;102756.57;1438721;89;21399;-82
2022/03/19 00:36:04;;;;;;;235.32;94.07;;;;;;;-2.66;67.27;102757.02;1440400;89;23347;-84
2022/03/19 00:38:31;;;;;;;219.87;94.42;;;;;;;-2.68;66.57;102757.44;1417888;90;22367;-83
2022/03/19 00:41:02;;;;;;;215.37;87.02;;;;;;;-2.68;65.33;102754.00;1442381;90;21340;-83
2022/03/19 00:43:28;;;;;;;195.62;80.07;;;;;;;-2.69;66.10;102757.47;1441133;90;21593;-83
2022/03/19 00:45:55;;;;;;;200.10;85.00;;;;;;;-2.70;66.04;102750.53;1453084;89;21442;-81
2022/03/19 00:48:23;;;;;;;187.57;79.70;;;;;;;-2.72;65.40;102748.83;1415881;91;21391;-83
2022/03/19 00:50:50;;;;;;;173.28;72.87;;;;;;;-2.70;66.27;102750.12;1426405;91;21487;-84
2022/03/19 00:53:16;;;;;;;157.62;73.60;;;;;;;-2.72;65.46;102751.41;1420062;90;21318;-83
2022/03/19 00:55:43;;;;;;;172.95;72.67;;;;;;;-2.69;65.03;102747.95;1420675;91;22117;-83
2022/03/19 00:58:12;;;;;;;167.57;71.80;;;;;;;-2.70;65.42;102745.35;1432210;91;21318;-83
2022/03/19 01:00:39;;;;;;;171.02;69.17;;;;;;;-2.73;66.71;102742.37;1442521;90;21375;-84
2022/03/19 01:03:07;;;;;;;173.97;73.47;;;;;;;-2.80;66.72;102742.80;1438831;89;22314;-84
2022/03/19 01:05:34;;;;;;;180.18;74.58;;;;;;;-2.84;66.45;102739.80;1451898;90;21398;-84
2022/03/19 01:08:01;;;;;;;179.70;75.95;;;;;;;-2.84;65.78;102737.21;1453047;89;21412;-84
2022/03/19 01:10:29;;;;;;;166.97;71.85;;;;;;;-2.84;65.65;102735.92;1449329;90;21376;-84
2022/03/19 01:12:57;;;;;;;174.15;70.35;;;;;;;-2.82;65.61;102732.01;1446531;89;21346;-84
2022/03/19 01:15:25;;;;;;;154.27;65.97;;;;;;;-2.83;65.67;102733.74;1450740;89;22403;-84
2022/03/19 01:17:52;;;;;;;171.45;64.72;;;;;;;-2.84;65.15;102729.44;1454635;89;21383;-84
2022/03/19 01:20:20;;;;;;;157.70;65.95;;;;;;;-2.85;65.81;102732.91;1446873;89;21382;-84
2022/03/19 01:22:49;;;;;;;160.22;66.95;;;;;;;-2.88;66.62;102725.11;1449849;90;21383;-84
2022/03/19 01:25:18;;;;;;;159.45;67.53;;;;;;;-2.92;66.13;102727.30;1453132;89;22359;-84
2022/03/19 01:27:47;;;;;;;149.82;62.20;;;;;;;-2.89;65.78;102724.70;1463849;88;22300;-84
2022/03/19 01:30:17;;;;;;;136.97;57.25;;;;;;;-2.92;66.33;102727.30;1448548;89;22285;-84
2022/03/19 01:32:46;;;;;;;136.90;62.73;;;;;;;-2.94;66.11;102721.25;1449094;89;21361;-84
2022/03/19 01:35:16;;;;;;;154.78;65.97;;;;;;;-3.00;67.13;102720.84;1456379;90;21375;-84
2022/03/19 01:37:44;;;;;;;136.60;59.88;;;;;;;-3.11;68.48;102719.15;1468782;88;21487;-84
2022/03/19 01:40:13;;;;;;;160.07;67.27;;;;;;;-3.26;68.81;102719.61;1458627;90;21479;-84
2022/03/19 01:42:45;;;;;;;137.10;58.83;;;;;;;-3.41;69.61;102717.06;1451549;90;21375;-84
2022/03/19 01:45:16;;;;;;;127.82;60.60;;;;;;;-3.49;68.80;102712.32;1448164;88;22343;-83
2022/03/19 01:47:44;;;;;;;140.73;60.03;;;;;;;-3.59;68.38;102720.98;1454544;89;21428;-84
2022/03/19 01:50:12;;;;;;;129.63;56.18;;;;;;;-3.65;69.03;102722.70;1454386;89;21441;-83
2022/03/19 01:52:41;;;;;;;135.80;58.28;;;;;;;-3.70;69.50;102721.83;1445086;90;22551;-83
2022/03/19 01:55:09;;;;;;;124.12;56.08;;;;;;;-3.76;70.64;102721.84;1450996;89;21368;-83
2022/03/19 01:57:40;;;;;;;119.53;55.52;;;;;;;-3.78;69.59;102723.55;1458210;90;21329;-82
2022/03/19 02:00:11;;;;;;;106.50;44.98;;;;;;;-3.75;69.11;102719.67;1437803;90;21486;-81
2022/03/19 02:02:38;;;;;;;123.65;57.88;;;;;;;-3.74;68.72;102720.12;1445984;90;21428;-81
2022/03/19 02:05:14;;;;;;;113.40;53.17;;;;;;;-3.76;68.81;102721.84;1458060;89;21426;-81
2022/03/19 02:07:44;;;;;;;133.75;56.20;;;;;;;-3.78;69.43;102723.98;1455640;89;21332;-80
2022/03/19 02:10:14;;;;;;;111.15;55.88;;;;;;;-3.81;70.32;102728.73;1453547;89;21361;-80
2022/03/19 02:12:43;;;;;;;121.92;57.48;;;;;;;-3.81;68.94;102727.44;1451136;89;21548;-81
2022/03/19 02:15:13;;;;;;;134.00;60.52;;;;;;;-3.89;68.86;102726.56;1448034;89;21375;-81
2022/03/19 02:17:40;;;;;;;134.65;58.02;;;;;;;-4.02;68.76;102727.00;1433556;90;21397;-80
2022/03/19 02:20:08;;;;;;;134.00;56.73;;;;;;;-4.05;68.67;102739.93;1456838;89;21441;-81
2022/03/19 02:22:35;;;;;;;136.80;61.73;;;;;;;-4.03;67.59;102724.39;1450507;90;21574;-81
2022/03/19 02:27:49;;;;;;;132.63;57.45;;;;;;;-3.99;68.21;102724.84;1444878;89;21428;-81
2022/03/19 02:30:16;;;;;;;117.93;52.93;;;;;;;-4.01;68.46;102736.47;1448315;90;21486;-80
2022/03/19 02:32:49;;;;;;;126.10;57.45;;;;;;;-4.08;68.98;102728.28;1454161;90;22262;-81
2022/03/19 02:35:14;;;;;;;128.65;63.15;;;;;;;-4.10;68.15;102730.00;1432325;90;21494;-81
2022/03/19 02:37:45;;;;;;;132.20;58.78;;;;;;;-4.06;67.56;102721.80;1430135;90;21553;-80
2022/03/19 02:40:15;;;;;;;124.35;55.75;;;;;;;-4.03;67.86;102720.08;1446510;89;22418;-81
2022/03/19 02:42:47;;;;;;;123.82;58.02;;;;;;;-4.03;68.30;102719.22;1423555;90;21392;-81
2022/03/19 02:45:14;;;;;;;125.20;56.85;;;;;;;-4.03;68.95;102720.52;1439046;90;22315;-82
2022/03/19 02:47:57;;;;;;;136.97;55.30;;;;;;;-4.01;67.78;102719.66;1438997;90;21555;-82
2022/03/19 02:50:34;;;;;;;116.90;55.55;;;;;;;-3.99;68.03;102714.06;1443952;88;21644;-81
2022/03/19 02:53:06;;;;;;;137.55;56.77;;;;;;;-4.00;68.30;102715.34;1458873;89;21510;-82
2022/03/19 02:55:37;;;;;;;122.60;57.00;;;;;;;-4.03;68.40;102716.63;1451476;89;21456;-82
2022/03/19 02:58:06;;;;;;;113.25;52.73;;;;;;;-4.06;68.51;102718.78;1449394;89;21428;-82
2022/03/19 03:00:34;;;;;;;117.60;54.10;;;;;;;-4.07;68.32;102721.39;1449035;89;21392;-82
2022/03/19 03:03:01;;;;;;;115.90;53.92;;;;;;;-4.13;69.03;102728.27;1451833;89;21333;-82
2022/03/19 03:05:28;;;;;;;128.62;55.43;;;;;;;-4.17;69.22;102717.50;1425641;89;21339;-82
2022/03/19 03:07:55;;;;;;;116.42;55.80;;;;;;;-4.15;68.82;102726.53;1448790;89;21384;-82
2022/03/19 03:10:23;;;;;;;118.40;52.95;;;;;;;-4.18;70.09;102724.80;1449093;89;21348;-82
2022/03/19 03:12:50;;;;;;;128.50;54.60;;;;;;;-4.20;68.99;102729.13;1458786;89;21449;-82
2022/03/19 03:15:17;;;;;;;145.17;59.40;;;;;;;-4.21;70.28;102726.09;1458145;89;21383;-82
2022/03/19 03:17:44;;;;;;;133.37;53.00;;;;;;;-4.22;69.59;102718.34;1465228;89;21924;-82
2022/03/19 03:20:13;;;;;;;138.97;55.92;;;;;;;-4.22;69.36;102715.77;1465618;89;22337;-82
2022/03/19 03:22:42;;;;;;;123.20;54.70;;;;;;;-4.28;70.56;102715.32;1460986;89;21428;-82
2022/03/19 03:25:10;;;;;;;126.97;53.40;;;;;;;-4.33;69.39;102710.56;1466900;89;21427;-82
2022/03/19 03:27:40;;;;;;;115.85;51.65;;;;;;;-4.34;70.02;102710.14;1467057;89;21406;-83
2022/03/19 03:30:09;;;;;;;115.42;48.63;;;;;;;-4.37;70.64;102712.72;1451870;89;21479;-83
2022/03/19 03:32:36;;;;;;;117.57;47.00;;;;;;;-4.42;70.47;102711.41;1435558;89;21487;-83
2022/03/19 03:35:03;;;;;;;120.17;47.75;;;;;;;-4.46;71.39;102713.97;1460271;89;21547;-82
2022/03/19 03:37:30;;;;;;;128.53;51.70;;;;;;;-4.52;71.22;102708.78;1448499;89;22411;-82
2022/03/19 03:39:57;;;;;;;136.07;56.98;;;;;;;-4.57;71.51;102707.06;1463450;89;21309;-82
2022/03/19 03:42:24;;;;;;;118.55;51.73;;;;;;;-4.58;70.98;102708.33;1456618;89;22463;-82
2022/03/19 03:44:57;;;;;;;119.60;51.10;;;;;;;-4.62;71.08;102714.36;1407090;92;21407;-83
2022/03/19 03:47:20;;;;;;;120.02;52.13;;;;;;;-4.67;70.71;102715.63;1440992;90;21937;-82
2022/03/19 03:49:47;;;;;;;115.90;52.08;;;;;;;-4.73;70.73;102712.16;1424679;90;21575;-82
2022/03/19 03:52:14;;;;;;;120.75;51.73;;;;;;;-4.75;70.85;102710.85;1411284;93;21496;-82
2022/03/19 03:54:42;;;;;;;109.27;51.33;;;;;;;-4.73;70.21;102718.63;1406574;93;21450;-81
2022/03/19 03:57:09;;;;;;;116.10;52.00;;;;;;;-4.74;70.07;102716.48;1403674;92;21420;-82
2022/03/19 03:59:36;;;;;;;102.50;47.10;;;;;;;-4.76;69.47;102714.30;1435771;90;21413;-82
2022/03/19 04:02:03;;;;;;;112.08;49.38;;;;;;;-4.80;69.98;102718.60;1409508;93;21524;-82
2022/03/19 04:04:30;;;;;;;117.67;50.67;;;;;;;-4.86;71.09;102718.98;1439754;90;21598;-83
2022/03/19 04:06:57;;;;;;;119.35;54.63;;;;;;;-4.91;71.47;102715.55;1435091;90;22323;-82
2022/03/19 04:09:24;;;;;;;110.05;51.02;;;;;;;-4.90;71.30;102722.42;1410249;93;22331;-81
2022/03/19 04:11:51;;;;;;;99.30;45.17;;;;;;;-4.87;71.18;102718.56;1408097;93;21554;-81
2022/03/19 04:14:18;;;;;;;99.77;46.53;;;;;;;-4.85;71.30;102715.56;1434554;90;21465;-81
2022/03/19 04:16:45;;;;;;;98.52;43.15;;;;;;;-4.81;70.41;102718.15;1399671;93;21504;-81
2022/03/19 04:19:11;;;;;;;92.55;40.63;;;;;;;-4.72;70.41;102716.03;1405632;93;21427;-83
2022/03/19 04:21:38;;;;;;;103.25;43.98;;;;;;;-4.70;70.23;102722.08;1401678;93;23273;-82
2022/03/19 04:24:06;;;;;;;103.47;43.30;;;;;;;-4.69;70.78;102718.66;1426715;90;21652;-80
2022/03/19 04:26:34;;;;;;;91.17;39.13;;;;;;;-4.72;71.51;102726.36;1418308;91;21490;-79
2022/03/19 04:29:01;;;;;;;81.57;37.90;;;;;;;-4.73;70.97;102729.82;1417037;92;21466;-80
2022/03/19 04:31:28;;;;;;;86.90;40.20;;;;;;;-4.77;71.21;102734.55;1424145;91;21608;-81
2022/03/19 04:33:55;;;;;;;95.15;39.42;;;;;;;-4.79;71.61;102733.67;1396486;92;22472;-81
2022/03/19 04:36:32;;;;;;;95.07;42.40;;;;;;;-4.85;71.54;102729.77;1416051;91;21386;-81
2022/03/19 04:39:02;;;;;;;93.05;43.83;;;;;;;-4.91;71.85;102732.33;1414619;92;22841;-82
2022/03/19 04:41:30;;;;;;;90.12;42.25;;;;;;;-4.99;71.01;102737.02;1421968;92;22419;-82
2022/03/19 04:43:57;;;;;;;90.47;40.67;;;;;;;-5.02;71.32;102743.45;1403296;92;21334;-82
2022/03/19 04:46:24;;;;;;;93.25;41.02;;;;;;;-5.01;71.17;102740.01;1348714;92;21290;-81
2022/03/19 04:48:53;;;;;;;114.45;48.30;;;;;;;-5.03;71.22;102737.02;1401721;91;21507;-83
2022/03/19 04:54:38;;;;;;;95.42;44.25;;;;;;;-5.14;70.74;102744.69;1407826;91;21584;-82
2022/03/19 04:57:06;;;;;;;98.03;43.65;;;;;;;-5.19;71.23;102739.91;1431807;91;22294;-82
2022/03/19 04:59:33;;;;;;;96.60;46.08;;;;;;;-5.22;71.15;102743.34;1441390;88;21375;-82
2022/03/19 05:02:00;;;;;;;104.87;48.30;;;;;;;-5.26;71.41;102751.08;1436892;89;21452;-85
2022/03/19 05:04:27;;;;;;;99.58;45.10;;;;;;;-5.29;71.05;102754.92;1450659;88;21421;-82
2022/03/19 05:06:54;;;;;;;97.22;44.60;;;;;;;-5.35;70.94;102753.56;1436096;91;21472;-82
2022/03/19 05:12:08;;;;;;;86.82;36.53;;;;;;;-5.43;71.47;102765.58;1417547;91;21931;-83
2022/03/19 05:14:35;;;;;;;72.03;34.60;;;;;;;-5.43;72.14;102764.29;1436027;90;23336;-83
2022/03/19 05:17:04;;;;;;;77.50;34.92;;;;;;;-5.42;72.51;102764.72;1439238;90;21355;-83
2022/03/19 05:19:32;;;;;;;72.50;38.48;;;;;;;-5.35;72.86;102761.31;1452181;89;21753;-83
2022/03/19 05:21:59;;;;;;;73.47;35.85;;;;;;;-5.25;72.54;102760.53;1447677;89;23266;-82
2022/03/19 05:24:26;;;;;;;69.32;35.13;;;;;;;-5.16;72.55;102763.17;1452557;89;21414;-83
2022/03/19 05:26:53;;;;;;;69.32;34.88;;;;;;;-5.02;72.48;102766.70;1451443;89;21406;-83
2022/03/19 05:29:21;;;;;;;62.40;31.23;;;;;;;-4.90;72.19;102765.05;1449044;89;22382;-83
2022/03/19 05:31:48;;;;;;;68.12;32.63;;;;;;;-4.78;72.40;102770.27;1451652;90;21407;-84
2022/03/19 05:34:30;;;;;;;62.70;31.73;;;;;;;-4.61;72.24;102767.77;1456110;89;22611;-82
2022/03/19 05:37:00;;;;;;;54.27;29.25;;;;;;;-4.46;71.91;102764.37;1450007;89;21945;-81
2022/03/19 05:39:28;;;;;;;55.83;28.12;;;;;;;-4.32;71.14;102769.16;1476280;90;21443;-81
2022/03/19 05:41:56;;;;;;;68.33;30.57;;;;;;;-4.17;70.24;102773.10;1451133;89;21532;-83
2022/03/19 05:44:23;;;;;;;68.80;32.60;;;;;;;-4.04;69.65;102780.88;1425768;90;21533;-81
2022/03/19 05:46:50;;;;;;;56.40;28.25;;;;;;;-3.91;69.63;102774.88;1443021;90;21413;-82
2022/03/19 05:49:17;;;;;;;48.70;27.77;;;;;;;-3.78;69.38;102784.36;1443484;90;21487;-81
2022/03/19 05:51:45;;;;;;;56.40;31.12;;;;;;;-3.67;68.99;102778.77;1452430;89;22315;-81
2022/03/19 05:54:12;;;;;;;57.95;29.50;;;;;;;-3.55;68.64;102786.97;1439462;89;21480;-81
2022/03/19 05:56:39;;;;;;;58.65;30.55;;;;;;;-3.43;68.50;102775.75;1433943;90;21472;-81
2022/03/19 05:59:06;;;;;;;57.65;28.95;;;;;;;-3.28;67.65;102778.75;1431614;90;21420;-82
2022/03/19 06:01:35;;;;;;;57.40;30.12;;;;;;;-3.17;67.01;102776.57;1436949;90;21474;-80
2022/03/19 06:04:02;;;;;;;59.27;27.85;;;;;;;-3.00;66.68;102778.28;1418296;91;22728;-81
2022/03/19 06:06:30;;;;;;;46.68;25.45;;;;;;;-2.86;66.08;102780.84;1430788;90;21450;-81
2022/03/19 06:08:57;;;;;;;47.95;25.65;;;;;;;-2.69;65.72;102778.20;1431076;90;22462;-81
2022/03/19 06:11:24;;;;;;;46.70;25.70;;;;;;;-2.61;64.07;102781.64;1433886;90;21524;-80
2022/03/19 06:13:51;;;;;;;47.90;26.23;;;;;;;-2.48;64.16;102772.92;1429718;91;23339;-82
2022/03/19 06:16:18;;;;;;;48.65;24.50;;;;;;;-2.32;63.26;102779.77;1429135;90;21457;-85
2022/03/19 06:18:50;;;;;;;49.67;26.40;;;;;;;-2.11;62.97;102779.22;1427673;91;21420;-85
2022/03/19 06:21:25;;;;;;;44.98;24.05;;;;;;;-1.92;62.48;102784.73;1417706;91;21958;-86
2022/03/19 06:23:53;;;;;;;47.60;22.90;;;;;;;-1.73;61.83;102784.59;1424476;90;21487;-84
2022/03/19 06:26:23;;;;;;;42.53;22.35;;;;;;;-1.55;60.86;102784.48;1429847;89;22314;-86
2022/03/19 06:28:51;;;;;;;37.10;21.35;;;;;;;-1.38;60.71;102787.80;1439135;89;21478;-86
2022/03/19 06:31:19;;;;;;;43.25;22.67;;;;;;;-1.23;59.45;102785.94;1427168;91;21391;-86
2022/03/19 06:33:46;;;;;;;39.83;21.73;;;;;;;-1.06;60.08;102784.03;1428847;88;21624;-81
2022/03/19 06:38:59;;;;;;;39.30;22.75;;;;;;;-0.69;59.28;102792.74;1451655;89;21392;-81
2022/03/19 06:41:26;;;;;;;38.73;21.07;;;;;;;-0.52;58.02;102789.50;1449165;89;21533;-82
2022/03/19 06:43:53;;;;;;;39.75;21.73;;;;;;;-0.33;58.35;102794.47;1441814;89;21370;-82
2022/03/19 06:46:21;;;;;;;42.65;22.48;;;;;;;-0.14;57.95;102793.79;1447290;89;21414;-82
2022/03/19 06:48:49;;;;;;;36.88;20.62;;;;;;;0.04;57.75;102797.88;1428482;91;21531;-82
2022/03/19 06:51:18;;;;;;;43.60;22.80;;;;;;;0.22;57.30;102792.37;1430745;91;22481;-82
2022/03/19 06:53:50;;;;;;;39.65;22.55;;;;;;;0.37;55.20;102787.38;1436384;88;21407;-83
2022/03/19 06:56:17;;;;;;;;;;;;;;;0.48;55.12;102785.91;1441494;88;21494;-83
2022/03/19 06:58:47;;;;;;;45.65;23.00;;;;;;;0.68;55.68;102790.34;1443180;89;20390;-83
2022/03/19 07:01:17;;;;;;;41.70;22.00;;;;;;;0.82;55.27;102788.34;1435516;90;21442;-83
2022/03/19 07:03:45;;;;;;;37.10;20.60;;;;;;;0.96;53.98;102783.34;1426394;91;21413;-83
2022/03/19 07:06:18;;;;;;;38.28;21.05;;;;;;;1.14;54.35;102786.89;1427578;91;21346;-83
2022/03/19 07:08:45;;;;;;;41.30;20.92;;;;;;;1.35;54.43;102789.11;1432277;91;21473;-83
2022/03/19 07:11:12;;;;;;;34.95;20.15;;;;;;;1.57;52.93;102786.05;1428064;90;21413;-84
2022/03/19 07:13:39;;;;;;;36.28;20.80;;;;;;;1.77;53.44;102795.61;1439604;90;22344;-84
2022/03/19 07:16:06;;;;;;;35.15;19.92;;;;;;;1.94;53.11;102788.72;1433866;88;22300;-84
2022/03/19 07:18:34;;;;;;;33.10;18.90;;;;;;;2.10;51.69;102789.66;1422358;91;21459;-84
2022/03/19 07:21:01;;;;;;;34.13;17.70;;;;;;;2.32;52.80;102784.35;1427903;91;22539;-84
2022/03/19 07:23:27;;;;;;;30.70;19.07;;;;;;;2.47;51.59;102785.31;1427810;91;21613;-85
2022/03/19 07:25:59;;;;;;;32.10;16.07;;;;;;;2.66;51.10;102779.16;1431605;88;21600;-85
2022/03/19 07:28:23;;;;;;;30.77;15.00;;;;;;;2.79;47.74;102768.37;1445070;88;23541;-83
2022/03/19 07:31:05;;;;;;;27.13;13.10;;;;;;;2.99;47.17;102773.92;1440921;88;22289;-83
2022/03/19 07:33:38;;;;;;;20.37;12.47;;;;;;;3.19;47.20;102773.38;1444019;89;22577;-82
2022/03/19 07:36:05;;;;;;;21.87;13.30;;;;;;;3.42;47.06;102772.73;1455138;89;21930;-82
2022/03/19 07:38:32;;;;;;;20.87;11.40;;;;;;;3.59;46.17;102780.09;1451770;89;21664;-82
2022/03/19 07:43:46;;;;;;;27.23;12.63;;;;;;;3.85;45.20;102780.62;1446881;89;21658;-81
2022/03/19 07:46:13;;;;;;;20.90;11.77;;;;;;;4.04;44.80;102777.86;1461319;89;21668;-82
2022/03/19 07:48:40;;;;;;;21.73;12.20;;;;;;;4.18;41.43;102771.33;1453296;89;21730;-82
2022/03/19 07:51:08;;;;;;;20.90;11.60;;;;;;;4.27;43.47;102774.96;1454288;88;21871;-82
2022/03/19 07:53:37;;;;;;;20.73;11.90;;;;;;;4.40;41.80;102782.84;1452287;89;21524;-82
2022/03/19 07:56:04;;;;;;;22.47;12.27;;;;;;;4.52;41.40;102786.36;1446095;89;22587;-82
2022/03/19 07:58:31;;;;;;;25.90;12.93;;;;;;;4.69;40.56;102784.92;1454748;89;21667;-82
2022/03/19 08:00:58;;;;;;;30.23;12.90;;;;;;;4.73;40.95;102767.72;1449564;89;21855;-82
2022/03/19 08:03:25;;;;;;;30.17;15.07;;;;;;;4.98;42.61;102787.42;1452197;89;23264;-82
2022/03/19 08:05:53;;;;;;;23.97;15.77;;;;;;;5.06;38.58;102780.56;1453374;90;21807;-83
2022/03/19 08:08:19;;;;;;;23.13;13.17;;;;;;;5.23;39.70;102789.62;1450430;89;21812;-81
2022/03/19 08:11:15;;;;;;;22.33;13.40;;;;;;;5.50;38.78;102778.58;1454200;90;21803;-81
2022/03/19 08:13:44;;;;;;;29.63;12.07;;;;;;;5.50;38.78;102778.58;1450082;89;21893;-81
2022/03/19 08:16:12;;;;;;;16.40;10.60;;;;;;;5.78;37.16;102789.75;1454544;90;21903;-81
2022/03/19 08:18:39;;;;;;;20.17;11.03;;;;;;;5.78;37.16;102789.75;1455693;89;22174;-80
2022/03/19 08:21:06;;;;;;;21.27;12.27;;;;;;;5.85;37.68;102793.84;1454094;90;22139;-81
2022/03/19 08:23:35;;;;;;;20.47;11.77;;;;;;;5.95;38.41;102789.57;1448583;90;23174;-81
2022/03/19 08:26:02;;;;;;;18.67;11.50;;;;;;;6.11;39.20;102790.69;1461302;90;22213;-82
2022/03/19 08:28:29;;;;;;;20.73;12.23;;;;;;;6.23;37.61;102784.93;1449695;89;22699;-82
2022/03/19 08:30:56;;;;;;;21.17;11.90;;;;;;;6.29;37.97;102788.63;1450424;89;22259;-82
2022/03/19 08:33:23;;;;;;;23.97;12.70;;;;;;;6.43;37.53;102783.27;1453468;89;22207;-82
2022/03/19 08:35:50;;;;;;;24.00;12.77;;;;;;;6.57;36.22;102776.13;1453824;89;22072;-83
2022/03/19 08:41:03;;;;;;;19.13;11.37;;;;;;;7.00;35.69;102777.30;1454859;89;22293;-83
2022/03/19 08:43:30;;;;;;;17.47;11.53;;;;;;;7.00;35.69;102777.30;1390826;93;21487;-82
2022/03/19 08:45:57;;;;;;;23.30;12.50;;;;;;;7.22;36.64;102779.86;1448291;88;22442;-83
2022/03/19 08:48:24;;;;;;;23.53;11.37;;;;;;;7.28;34.97;102779.16;1451917;89;21633;-82
2022/03/19 08:51:39;;;;;;;19.30;11.63;;;;;;;7.44;36.10;102782.83;1448008;89;22470;-82
2022/03/19 08:53:24;;;;;;;18.57;11.17;;;;;;;7.62;34.76;102780.69;1447102;89;21457;-82
2022/03/19 08:55:51;;;;;;;23.63;12.33;;;;;;;7.71;35.62;102774.12;1452075;89;21525;-83
2022/03/19 08:58:18;;;;;;;21.20;11.33;;;;;;;7.79;34.94;102771.11;1457308;89;21443;-80
2022/03/19 09:00:45;;;;;;;20.77;11.47;;;;;;;8.00;35.39;102778.02;1452409;89;22396;-82
2022/03/19 09:03:12;;;;;;;19.43;10.70;;;;;;;8.16;34.11;102774.16;1456602;89;21480;-81
2022/03/19 09:05:40;;;;;;;18.33;11.00;;;;;;;8.22;32.82;102774.33;1452682;89;21399;-81
2022/03/19 09:08:07;;;;;;;22.37;12.40;;;;;;;8.34;33.60;102765.80;1455018;89;21569;-82
2022/03/19 09:10:33;;;;;;;26.77;11.60;;;;;;;8.50;33.19;102770.75;1451717;89;21421;-82
2022/03/19 09:13:02;;;;;;;16.27;10.70;;;;;;;8.52;31.71;102774.17;1453439;89;21421;-81
2022/03/19 09:15:29;;;;;;;20.30;9.83;;;;;;;8.70;32.30;102772.38;1450409;89;21643;-81
2022/03/19 09:17:55;;;;;;;18.33;9.47;;;;;;;8.86;33.07;102768.50;1455158;89;21487;-81
2022/03/19 09:20:23;;;;;;;14.53;8.27;;;;;;;8.97;30.90;102773.20;1449809;89;21377;-82
2022/03/19 09:22:50;;;;;;;16.30;8.80;;;;;;;8.98;29.64;102764.37;1456659;89;21894;-81
2022/03/19 09:25:17;;;;;;;18.27;9.63;;;;;;;9.15;31.88;102770.06;1453892;89;22400;-81
2022/03/19 09:27:44;;;;;;;20.17;11.23;;;;;;;9.22;31.14;102762.20;1451445;89;21414;-82
2022/03/19 09:30:11;;;;;;;14.67;9.23;;;;;;;9.41;31.66;102760.30;1456481;89;21458;-82
2022/03/19 09:32:38;;;;;;;16.70;8.90;;;;;;;9.56;30.23;102761.72;1459531;89;22020;-81
2022/03/19 09:35:06;;;;;;;17.40;9.77;;;;;;;9.64;28.84;102759.51;1452843;89;22389;-82
2022/03/19 09:37:35;;;;;;;16.63;8.23;;;;;;;9.82;29.18;102758.47;1449434;89;22360;-82
2022/03/19 09:40:03;;;;;;;14.50;8.83;;;;;;;9.96;28.00;102763.47;1449964;89;21443;-82
2022/03/19 09:42:32;;;;;;;17.83;10.53;;;;;;;10.01;28.47;102761.39;1454820;89;21377;-82
2022/03/19 09:44:59;;;;;;;17.37;8.43;;;;;;;10.08;27.23;102760.12;1457864;89;21867;-81
2022/03/19 09:47:27;;;;;;;12.03;7.10;;;;;;;10.26;28.69;102761.70;1452217;89;21376;-82
2022/03/19 09:49:54;;;;;;;9.17;6.50;;;;;;;10.41;27.82;102763.11;1449884;89;21539;-81
2022/03/19 09:52:24;;;;;;;15.43;7.30;;;;;;;10.52;26.64;102752.27;1450067;89;21458;-81
2022/03/19 09:54:52;;;;;;;;;;;;;;;10.59;27.73;102752.78;1435724;89;21562;-82
2022/03/19 09:57:19;;;;;;;15.37;7.50;;;;;;;10.72;25.50;102748.44;1448425;89;20263;-80
2022/03/19 09:59:47;;;;;;;21.57;8.43;;;;;;;10.82;28.27;102750.92;1445460;89;21392;-80
2022/03/19 10:02:15;;;;;;;17.17;8.43;;;;;;;10.95;26.32;102748.84;1449819;89;23694;-81
2022/03/19 10:04:42;;;;;;;11.57;7.87;;;;;;;10.98;26.11;102748.66;1452600;89;22767;-81
2022/03/19 10:09:57;;;;;;;11.67;7.13;;;;;;;11.12;26.53;102746.02;1450779;89;21451;-81
2022/03/19 10:12:31;;;;;;;12.87;5.90;;;;;;;11.21;26.51;102744.11;1534752;89;21303;-80
2022/03/19 10:14:59;;;;;;;8.73;6.27;;;;;;;11.34;24.64;102748.20;1479929;89;21924;-81
2022/03/19 10:17:49;;;;;;;10.43;5.83;;;;;;;11.39;25.28;102751.86;1451367;89;21539;-81
2022/03/19 10:20:16;;;;;;;11.43;5.93;;;;;;;11.45;23.41;102754.12;1439387;89;21509;-81
2022/03/19 10:22:46;;;;;;;9.60;6.80;;;;;;;11.49;21.65;102752.52;1439100;90;21421;-80
2022/03/19 10:25:18;;;;;;;9.95;6.67;;;;;;;11.58;23.74;102751.09;1439356;90;21390;-80
2022/03/19 10:27:46;;;;;;;10.90;5.47;;;;;;;11.62;23.21;102749.09;1428040;90;21420;-81
2022/03/19 10:30:19;;;;;;;11.43;6.40;;;;;;;11.61;22.97;102750.05;1442445;89;22152;-81
2022/03/19 10:32:55;;;;;;;17.17;11.33;;;;;;;11.70;24.89;102756.08;1441200;90;21538;-80
2022/03/19 10:35:32;;;;;;;11.80;6.50;;;;;;;11.66;22.54;102740.84;1444063;90;21464;-80
2022/03/19 10:38:19;;;;;;;29.30;17.87;;;;;;;11.81;24.54;102736.83;1415431;89;21354;-80
2022/03/19 10:40:49;;;;;;;27.67;18.47;;;;;;;11.91;22.33;102745.91;1472832;90;21634;-79
2022/03/19 10:43:24;;;;;;;24.90;14.00;;;;;;;11.84;24.07;102737.95;1384581;90;23278;-80
2022/03/19 10:45:54;;;;;;;28.83;14.60;;;;;;;11.94;23.39;102743.09;1479857;90;21485;-81
2022/03/19 10:48:27;;;;;;;15.23;7.85;;;;;;;11.93;22.81;102745.34;1425681;89;21449;-81
2022/03/19 10:50:57;;;;;;;11.17;6.30;;;;;;;12.02;23.62;102742.08;1442560;89;21353;-81
2022/03/19 10:53:26;;;;;;;7.13;5.33;;;;;;;12.32;23.63;102741.03;1443092;90;21516;-81
2022/03/19 10:55:54;;;;;;;13.53;7.27;;;;;;;12.49;21.63;102734.10;1439467;89;21435;-81
2022/03/19 10:58:22;;;;;;;10.17;6.97;;;;;;;12.46;21.63;102734.77;1432823;89;21327;-82
2022/03/19 11:00:51;;;;;;;15.73;6.83;;;;;;;12.62;22.20;102732.29;1429104;90;21354;-84
2022/03/19 11:03:28;;;;;;;11.53;6.87;;;;;;;12.70;23.11;102732.27;1431564;90;21414;-81
2022/03/19 11:06:08;;;;;;;15.37;9.30;;;;;;;12.72;22.73;102725.05;1441645;89;22388;-81
2022/03/19 11:08:44;;;;;;;10.57;6.20;;;;;;;12.87;23.23;102726.62;1426398;90;21582;-82
2022/03/19 11:11:25;;;;;;;24.27;8.00;;;;;;;13.17;23.46;102720.11;1441180;89;21657;-82
2022/03/19 11:13:54;;;;;;;11.67;6.90;;;;;;;13.39;21.53;102708.34;1439942;90;21485;-81
2022/03/19 11:16:22;;;;;;;12.03;6.83;;;;;;;13.60;24.14;102709.08;1434637;89;21370;-81
2022/03/19 11:32:01;;;;;;;43.10;15.03;;;;;;;12.98;20.63;102693.52;1511801;85;25753;-80
2022/03/19 11:34:47;;;;;;;12.03;8.17;;;;;;;13.00;25.36;102687.58;1472930;87;21567;-80
2022/03/19 11:37:13;;;;;;;17.63;6.90;;;;;;;13.08;23.12;102691.88;1478673;87;21958;-81
2022/03/19 11:40:05;;;;;;;19.70;6.77;;;;;;;13.20;20.78;102687.98;1469848;87;21560;-80
2022/03/19 11:42:32;;;;;;;11.07;5.83;;;;;;;13.57;22.37;102689.35;1472085;88;21544;-80
2022/03/19 11:45:10;;;;;;;8.67;6.27;;;;;;;13.70;21.95;102684.36;1467662;88;21470;-81
2022/03/19 11:47:38;;;;;;;10.83;7.03;;;;;;;14.03;20.84;102683.28;1486987;87;21507;-81
2022/03/19 11:50:20;;;;;;;12.03;8.17;;;;;;;14.00;20.30;102683.03;1471237;87;21508;-82